< < Back
Terminal Aerodrome Forecast


Current Version              Previous Versions:   1  2  3  4  5  6  7  8  9  

Terminal Aerodrome Forecast

321
FTUS42 KFFC 160700 AAA
TAFATL
TAF AMD
KATL 160759Z 1608/1712 34007KT P6SM SKC
     FM160900 02009KT P6SM SKC
     FM161200 06010KT P6SM SKC
     FM161500 10011G18KT P6SM SCT250
     FM170000 10009KT P6SM SCT250=

Latest METAR

584
SAUS70 KWBC 161600 RRK
MTRATL
METAR KATL 161552Z 09009KT 10SM CLR 10/M03 A3030 RMK AO2 SLP263
T01001028


USA.gov is the U.S. government's official web portal to all federal, state and local government web resources and services.